Arverne, New York
Current Conditions -  °F | °C
As of 10:51 AM on Thursday 30 Oct 2014 (Local Time) from KJFK Reporting Station
Scattered Clouds Scattered Clouds  
Wind Chill: 57°   Ceiling: Unl
Heat Index: 57°   Visibility: 10mi
Dew Point: 38°   Wind: 14mph
Humidity: 49%   Direction: 320°NW
Pressure: 30"   Gusts: NA
Location:  40.59°N, 73.8°W
Report Text: KJFK 301451Z 32012KT 10SM SCT070 14/03 A3000 RMK AO2 SLP159 T01390033 50005
Loading
Personal Weather Stations






























Interactive Weather Map
Tropical Storm Tracking
New forecast layout! Learn more

10-Day Weather Forecast

Advertisements
Track Severe Weather on mobile